Time;durP1;ratioP1;P1;durP2;ratioP2;P2;SDS_P1;SDS_P2;PMS_P1;PMS_P2;Temp;Humidity;BMP_temperature;BMP_pressure;BME280_temperature;BME280_humidity;BME280_pressure;Samples;Min_cycle;Max_cycle;Signal;HPM_P1;HPM_P2
2021/07/24 00:01:03;;;;;;;11.80;2.80;;;41.10;27.90;;;;;;5105180;27;20542;-63
2021/07/24 00:03:29;;;;;;;17.88;2.95;;;41.00;27.80;;;;;;5109936;27;20159;-64
2021/07/24 00:05:56;;;;;;;23.77;3.05;;;40.80;28.10;;;;;;5113523;27;20559;-64
2021/07/24 00:08:22;;;;;;;18.70;2.67;;;41.00;28.70;;;;;;5109722;27;20080;-65
2021/07/24 00:10:49;;;;;;;13.23;2.63;;;41.00;28.50;;;;;;5109380;27;20113;-66
2021/07/24 00:13:16;;;;;;;17.40;3.03;;;40.90;28.40;;;;;;5106423;27;20113;-64
2021/07/24 00:15:43;;;;;;;9.07;2.50;;;40.80;28.80;;;;;;5106654;27;20209;-62
2021/07/24 00:18:09;;;;;;;17.40;3.60;;;40.90;28.90;;;;;;5103111;27;20073;-65
2021/07/24 00:20:36;;;;;;;20.95;2.92;;;40.60;29.10;;;;;;5110760;27;20096;-64
2021/07/24 00:23:03;;;;;;;11.40;2.42;;;40.50;29.30;;;;;;5103431;28;20106;-62
2021/07/24 00:25:30;;;;;;;15.18;3.50;;;40.50;29.50;;;;;;5102944;28;20075;-63
2021/07/24 00:27:57;;;;;;;13.15;2.95;;;40.60;29.60;;;;;;5101255;27;20103;-63
2021/07/24 00:30:23;;;;;;;10.40;2.90;;;40.50;29.80;;;;;;5102725;27;20116;-64
2021/07/24 00:32:50;;;;;;;10.90;2.70;;;40.40;29.90;;;;;;5106288;28;20088;-63
2021/07/24 00:35:17;;;;;;;20.85;3.85;;;40.30;29.70;;;;;;5105118;27;20072;-63
2021/07/24 00:37:43;;;;;;;11.70;2.90;;;40.20;30.00;;;;;;5100630;27;20118;-63
2021/07/24 00:40:15;;;;;;;13.05;2.60;;;40.20;30.00;;;;;;5103057;27;20115;-63
2021/07/24 00:42:44;;;;;;;10.43;2.33;;;40.10;30.00;;;;;;5103568;28;20144;-64
2021/07/24 00:45:16;;;;;;;14.52;2.53;;;40.10;30.30;;;;;;5101774;27;20107;-63
2021/07/24 00:47:48;;;;;;;13.60;2.95;;;40.00;29.80;;;;;;5102287;27;20079;-63
2021/07/24 00:50:16;;;;;;;13.43;2.45;;;39.80;30.00;;;;;;5104008;27;20174;-64
2021/07/24 00:52:44;;;;;;;9.95;2.33;;;39.80;29.40;;;;;;5106347;27;20129;-64
2021/07/24 00:55:15;;;;;;;14.85;2.42;;;39.60;29.10;;;;;;5100608;27;20076;-62
2021/07/24 00:57:44;;;;;;;20.65;2.38;;;39.40;28.90;;;;;;5102938;28;20072;-63
2021/07/24 01:00:12;;;;;;;63.08;5.43;;;39.20;29.00;;;;;;5099608;27;20127;-63
2021/07/24 01:02:39;;;;;;;14.05;2.50;;;39.30;29.40;;;;;;5103623;28;20108;-64
2021/07/24 01:05:07;;;;;;;14.02;2.30;;;39.20;29.50;;;;;;5104033;27;20113;-63
2021/07/24 01:07:37;;;;;;;15.15;2.60;;;39.20;29.90;;;;;;5105960;28;20073;-63
2021/07/24 01:10:05;;;;;;;17.23;3.03;;;39.10;30.20;;;;;;5098607;28;20089;-63
2021/07/24 01:12:33;;;;;;;28.70;3.25;;;39.00;30.60;;;;;;5102516;28;20068;-63
2021/07/24 01:15:05;;;;;;;22.10;3.05;;;38.90;31.10;;;;;;5107189;28;20525;-64
2021/07/24 01:17:32;;;;;;;21.63;3.13;;;38.80;31.50;;;;;;5101224;28;20072;-63
2021/07/24 01:19:59;;;;;;;22.42;3.40;;;38.80;32.10;;;;;;5102245;28;20099;-63
2021/07/24 01:22:28;;;;;;;26.70;3.95;;;38.70;33.00;;;;;;5105343;28;20072;-64
2021/07/24 01:24:55;;;;;;;18.80;3.10;;;38.60;33.00;;;;;;5106000;28;20077;-63
2021/07/24 01:27:21;;;;;;;22.45;3.97;;;38.70;33.40;;;;;;5099237;28;20079;-63
2021/07/24 01:29:48;;;;;;;25.42;3.55;;;38.70;33.70;;;;;;5104836;28;20149;-63
2021/07/24 01:32:14;;;;;;;24.30;3.38;;;38.60;34.10;;;;;;5104752;28;20084;-63
2021/07/24 01:34:46;;;;;;;23.98;3.10;;;38.60;34.30;;;;;;5110051;28;20144;-63
2021/07/24 01:37:12;;;;;;;22.63;3.95;;;38.60;34.20;;;;;;5102307;28;20445;-63
2021/07/24 01:39:39;;;;;;;20.45;3.30;;;38.60;34.20;;;;;;5101557;28;20502;-63
2021/07/24 01:42:06;;;;;;;13.27;3.30;;;38.50;33.60;;;;;;5110789;27;20080;-64
2021/07/24 01:44:32;;;;;;;16.02;3.25;;;38.30;33.60;;;;;;5109030;27;20489;-65
2021/07/24 01:46:58;;;;;;;15.38;3.17;;;38.20;33.20;;;;;;5106620;27;20463;-64
2021/07/24 01:52:49;;;;;;;38.38;3.38;;;38.10;33.10;;;;;;5113252;27;20548;-63
2021/07/24 01:55:44;;;;;;;27.20;2.95;;;37.80;33.40;;;;;;5113026;27;20457;-63
2021/07/24 01:58:19;;;;;;;26.50;3.40;;;38.00;44.10;;;;;;5110305;27;20126;-61
2021/07/24 02:00:49;;;;;;;18.42;2.92;;;38.00;32.50;;;;;;5108357;27;20623;-62
2021/07/24 02:03:17;;;;;;;23.42;3.25;;;37.90;32.10;;;;;;5110779;27;20388;-62
2021/07/24 02:05:48;;;;;;;22.48;4.35;;;37.90;32.80;;;;;;5109676;27;20079;-62
2021/07/24 02:08:23;;;;;;;18.30;2.95;;;37.80;32.60;;;;;;5105080;27;20425;-63
2021/07/24 02:10:50;;;;;;;20.47;2.77;;;37.50;32.00;;;;;;5110024;27;20099;-61
2021/07/24 02:13:19;;;;;;;33.90;3.42;;;37.20;31.80;;;;;;5110992;27;20076;-63
2021/07/24 02:15:46;;;;;;;26.08;3.03;;;37.10;32.20;;;;;;5109417;27;20068;-64
2021/07/24 02:18:19;;;;;;;24.85;3.15;;;37.00;54.20;;;;;;5107614;28;20591;-63
2021/07/24 02:20:46;;;;;;;18.73;2.45;;;;;;;;;;5110137;27;20096;-64
2021/07/24 02:23:14;;;;;;;26.10;3.05;;;36.90;32.50;;;;;;5110302;27;20019;-61
2021/07/24 02:25:41;;;;;;;18.50;2.90;;;;;;;;;;5104467;27;20034;-62
2021/07/24 02:28:07;;;;;;;29.20;3.85;;;36.70;42.20;;;;;;5107571;28;20015;-61
2021/07/24 02:30:34;;;;;;;38.33;4.47;;;36.70;32.90;;;;;;5107479;27;20112;-62
2021/07/24 02:33:01;;;;;;;33.38;6.07;;;36.70;32.90;;;;;;5109792;27;20513;-63
2021/07/24 02:35:27;;;;;;;21.73;6.25;;;36.60;33.00;;;;;;5111251;27;20081;-63
2021/07/24 02:37:54;;;;;;;20.85;6.38;;;36.60;33.00;;;;;;5106420;28;20068;-64
2021/07/24 02:40:21;;;;;;;29.73;6.53;;;36.60;33.10;;;;;;5106842;27;20169;-62
2021/07/24 02:42:48;;;;;;;26.15;5.53;;;36.50;33.40;;;;;;5107006;27;20064;-63
2021/07/24 02:45:15;;;;;;;25.25;6.10;;;36.40;33.40;;;;;;5110017;28;20160;-62
2021/07/24 02:47:42;;;;;;;20.27;4.95;;;36.40;33.50;;;;;;5106670;27;20100;-62
2021/07/24 02:50:09;;;;;;;20.73;4.85;;;36.30;33.70;;;;;;5110017;27;20428;-63
2021/07/24 02:52:35;;;;;;;24.05;4.32;;;36.20;33.80;;;;;;5103832;27;20142;-63
2021/07/24 02:55:02;;;;;;;33.20;3.80;;;36.20;33.90;;;;;;5110923;27;20076;-63
2021/07/24 02:57:28;;;;;;;28.83;4.18;;;36.20;33.80;;;;;;5111224;27;20533;-63
2021/07/24 02:59:55;;;;;;;18.38;3.70;;;36.20;34.40;;;;;;5108364;27;20405;-62
2021/07/24 03:02:21;;;;;;;23.35;3.88;;;36.20;34.60;;;;;;5104227;28;20076;-62
2021/07/24 03:04:48;;;;;;;15.38;2.90;;;36.10;34.70;;;;;;5110999;27;20533;-62
2021/07/24 03:07:14;;;;;;;22.90;3.20;;;36.10;34.90;;;;;;5108964;27;20163;-61
2021/07/24 03:09:41;;;;;;;27.95;4.00;;;36.00;35.00;;;;;;5107821;27;20087;-62
2021/07/24 03:12:07;;;;;;;14.90;3.33;;;35.90;35.10;;;;;;5110710;27;20064;-63
2021/07/24 03:14:34;;;;;;;20.40;3.22;;;35.90;35.30;;;;;;5112442;27;20072;-62
2021/07/24 03:17:01;;;;;;;16.90;3.35;;;35.80;35.40;;;;;;5107691;27;20436;-62
2021/07/24 03:19:28;;;;;;;16.65;4.47;;;35.80;35.60;;;;;;5102377;28;20089;-61
2021/07/24 03:21:54;;;;;;;22.63;3.60;;;35.80;36.20;;;;;;5104967;27;20072;-62
2021/07/24 03:24:21;;;;;;;15.02;3.58;;;35.80;36.60;;;;;;5109403;27;20072;-63
2021/07/24 03:26:48;;;;;;;18.75;3.30;;;35.70;37.20;;;;;;5106748;27;20084;-62
2021/07/24 03:29:14;;;;;;;28.70;3.65;;;35.60;37.60;;;;;;5107896;27;20111;-62
2021/07/24 03:31:40;;;;;;;22.35;4.20;;;35.60;38.50;;;;;;5108909;27;20071;-62
2021/07/24 03:34:07;;;;;;;26.33;6.30;;;35.50;39.80;;;;;;5104156;27;20089;-65
2021/07/24 03:36:33;;;;;;;33.00;6.63;;;35.40;40.10;;;;;;5098550;27;20076;-62
2021/07/24 03:39:00;;;;;;;24.10;7.38;;;35.40;40.30;;;;;;5104576;27;20571;-63
2021/07/24 03:41:26;;;;;;;29.92;6.38;;;35.40;40.20;;;;;;5105329;27;20080;-62
2021/07/24 03:43:53;;;;;;;30.48;4.78;;;35.40;40.60;;;;;;5108880;27;20078;-63
2021/07/24 03:46:21;;;;;;;19.13;4.70;;;35.30;40.90;;;;;;5107235;27;20560;-63
2021/07/24 03:48:48;;;;;;;17.80;4.00;;;35.20;41.60;;;;;;5106245;28;20095;-63
2021/07/24 03:51:15;;;;;;;21.60;4.10;;;35.20;43.10;;;;;;5107924;27;20084;-63
2021/07/24 03:53:42;;;;;;;20.58;4.43;;;35.20;43.50;;;;;;5103100;28;20073;-63
2021/07/24 03:56:19;;;;;;;17.30;3.10;;;35.10;44.90;;;;;;5102266;27;20083;-64
2021/07/24 03:58:50;;;;;;;26.27;4.72;;;35.00;45.70;;;;;;5104027;27;20155;-63
2021/07/24 04:01:18;;;;;;;19.83;4.47;;;35.00;46.30;;;;;;5103265;27;20088;-62
2021/07/24 04:03:45;;;;;;;20.45;3.83;;;34.90;47.30;;;;;;5103441;27;20122;-64
2021/07/24 04:06:29;;;;;;;19.65;4.15;;;34.80;48.70;;;;;;5106451;27;20528;-63
2021/07/24 04:09:00;;;;;;;19.67;4.93;;;34.70;49.50;;;;;;5100468;27;20087;-62
2021/07/24 04:11:27;;;;;;;18.80;4.30;;;34.60;50.70;;;;;;5108250;28;20640;-62
2021/07/24 04:13:54;;;;;;;18.65;4.65;;;34.50;51.80;;;;;;5102729;28;20068;-63
2021/07/24 04:16:21;;;;;;;21.33;3.83;;;34.60;52.40;;;;;;5108964;27;20083;-61
2021/07/24 04:18:48;;;;;;;20.33;4.63;;;34.40;69.30;;;;;;5104838;28;20090;-63
2021/07/24 04:21:15;;;;;;;17.98;5.50;;;34.30;77.50;;;;;;5105688;27;20050;-62
2021/07/24 04:23:42;;;;;;;29.73;5.60;;;34.30;85.40;;;;;;5107804;27;20069;-62
2021/07/24 04:26:08;;;;;;;28.27;5.25;;;33.90;82.10;;;;;;5102857;28;20072;-64
2021/07/24 04:28:35;;;;;;;32.88;5.53;;;34.20;95.70;;;;;;5108348;27;20023;-62
2021/07/24 04:31:02;;;;;;;18.80;3.72;;;34.20;55.50;;;;;;5106119;28;20085;-62
2021/07/24 04:33:28;;;;;;;21.17;4.70;;;34.20;88.30;;;;;;5105698;27;20111;-62
2021/07/24 04:35:55;;;;;;;23.45;5.68;;;34.10;55.90;;;;;;5104382;27;20076;-63
2021/07/24 04:38:21;;;;;;;18.58;4.60;;;34.00;56.00;;;;;;5107257;28;20027;-63
2021/07/24 04:40:48;;;;;;;23.48;5.50;;;34.00;56.60;;;;;;5104635;27;20178;-63
2021/07/24 04:43:15;;;;;;;20.17;4.80;;;34.00;56.90;;;;;;5099721;27;20097;-63
2021/07/24 04:45:43;;;;;;;22.30;4.97;;;33.90;56.80;;;;;;5103783;27;20106;-62
2021/07/24 04:48:10;;;;;;;21.65;5.00;;;33.90;57.40;;;;;;5104196;27;20065;-63
2021/07/24 04:50:47;;;;;;;28.30;4.72;;;33.90;57.50;;;;;;5106435;27;20079;-62
2021/07/24 04:53:13;;;;;;;20.48;4.63;;;;;;;;;;5096138;28;20481;-62
2021/07/24 04:55:41;;;;;;;20.67;4.10;;;;;;;;;;5108384;27;20023;-63
2021/07/24 04:58:08;;;;;;;27.00;4.88;;;33.70;56.20;;;;;;5104768;28;20030;-63
2021/07/24 05:00:40;;;;;;;21.25;4.75;;;33.70;56.50;;;;;;5103559;27;20032;-61
2021/07/24 05:03:14;;;;;;;18.35;4.22;;;33.70;57.20;;;;;;5104269;28;20120;-62
2021/07/24 05:05:42;;;;;;;22.67;4.85;;;33.60;57.00;;;;;;5110635;28;20032;-62
2021/07/24 05:08:09;;;;;;;21.17;4.28;;;;;;;;;;5105255;27;20151;-61
2021/07/24 05:10:36;;;;;;;26.67;4.93;;;;;;;;;;5103545;28;20480;-64
2021/07/24 05:13:03;;;;;;;27.27;7.25;;;33.50;94.60;;;;;;5096233;28;20035;-63
2021/07/24 05:15:30;;;;;;;17.65;4.82;;;33.50;58.40;;;;;;5105923;28;20120;-62
2021/07/24 05:17:56;;;;;;;22.60;5.10;;;33.40;58.90;;;;;;5101843;28;20076;-62
2021/07/24 05:20:28;;;;;;;15.40;4.00;;;33.40;59.10;;;;;;5107645;28;20590;-62
2021/07/24 05:22:54;;;;;;;20.35;4.88;;;33.40;59.20;;;;;;5105001;28;20615;-63
2021/07/24 05:25:21;;;;;;;18.67;5.05;;;33.40;59.30;;;;;;5107335;28;20068;-63
2021/07/24 05:27:47;;;;;;;23.35;4.45;;;33.40;59.60;;;;;;5104260;28;20217;-63
2021/07/24 05:30:15;;;;;;;25.70;4.55;;;33.30;60.00;;;;;;5102848;28;20120;-62
2021/07/24 05:32:42;;;;;;;22.15;4.63;;;33.30;60.50;;;;;;5102047;28;20158;-62
2021/07/24 05:35:09;;;;;;;21.02;4.60;;;33.20;61.00;;;;;;5104560;28;20518;-62
2021/07/24 05:37:35;;;;;;;23.58;5.35;;;33.20;61.50;;;;;;5102953;28;20083;-63
2021/07/24 05:40:03;;;;;;;23.05;5.13;;;33.20;62.00;;;;;;5101320;28;20092;-62
2021/07/24 05:42:29;;;;;;;21.63;5.07;;;33.10;63.00;;;;;;5104725;28;20085;-61
2021/07/24 05:44:56;;;;;;;20.67;4.50;;;33.10;64.10;;;;;;5102648;28;20079;-63
2021/07/24 05:47:22;;;;;;;20.02;4.47;;;33.00;64.60;;;;;;5106400;28;20484;-62
2021/07/24 05:49:50;;;;;;;24.58;4.75;;;33.00;65.00;;;;;;5104010;28;20080;-62
2021/07/24 05:52:16;;;;;;;15.80;4.38;;;33.00;65.70;;;;;;5103588;28;20077;-63
2021/07/24 05:54:43;;;;;;;21.95;4.95;;;33.00;65.30;;;;;;5100538;28;20083;-62
2021/07/24 05:57:09;;;;;;;19.17;5.18;;;33.00;66.20;;;;;;5102868;28;20075;-62
2021/07/24 05:59:36;;;;;;;19.80;3.85;;;33.00;66.00;;;;;;5100619;28;20145;-62
2021/07/24 06:02:05;;;;;;;25.35;5.32;;;32.90;66.50;;;;;;5102988;28;20072;-63
2021/07/24 06:04:33;;;;;;;25.02;5.03;;;32.90;66.40;;;;;;5107208;28;20486;-61
2021/07/24 06:07:00;;;;;;;17.35;4.35;;;32.90;66.50;;;;;;5104906;28;20068;-63
2021/07/24 06:09:28;;;;;;;26.00;5.03;;;32.90;67.10;;;;;;5103204;28;20172;-63
2021/07/24 06:11:54;;;;;;;15.82;4.00;;;32.90;67.30;;;;;;5101994;28;20068;-63
2021/07/24 06:14:22;;;;;;;25.70;4.82;;;32.80;66.50;;;;;;5104255;28;20084;-64
2021/07/24 06:16:49;;;;;;;24.60;5.55;;;32.80;67.40;;;;;;5103911;28;20072;-64
2021/07/24 06:19:16;;;;;;;21.80;5.07;;;32.90;98.30;;;;;;5095388;28;20027;-62
2021/07/24 06:21:43;;;;;;;23.60;4.82;;;32.70;67.30;;;;;;5107629;28;20102;-61
2021/07/24 06:24:10;;;;;;;23.80;4.72;;;32.70;68.00;;;;;;5102679;27;20155;-64
2021/07/24 06:26:37;;;;;;;21.85;5.13;;;32.80;67.80;;;;;;5102403;27;20108;-63
2021/07/24 06:29:05;;;;;;;17.95;4.32;;;32.80;67.80;;;;;;5103834;27;20108;-62
2021/07/24 06:31:32;;;;;;;20.83;4.88;;;;;;;;;;5106880;28;20160;-61
2021/07/24 06:34:00;;;;;;;19.40;5.10;;;32.70;96.60;;;;;;5111788;27;20089;-66
2021/07/24 06:36:27;;;;;;;18.83;5.07;;;32.70;68.20;;;;;;5109577;27;20084;-62
2021/07/24 06:38:53;;;;;;;20.73;4.22;;;;;;;;;;5104713;27;20076;-64
2021/07/24 06:41:20;;;;;;;24.90;4.68;;;32.70;99.90;;;;;;5106603;28;20038;-63
2021/07/24 06:43:47;;;;;;;18.70;4.53;;;32.70;69.00;;;;;;5110218;27;20428;-65
2021/07/24 06:46:16;;;;;;;18.98;4.57;;;32.60;69.70;;;;;;5109917;27;20499;-63
2021/07/24 06:48:43;;;;;;;27.75;5.72;;;32.50;70.00;;;;;;5107791;27;20452;-63
2021/07/24 06:51:09;;;;;;;21.27;5.70;;;32.50;70.90;;;;;;5109442;27;20213;-62
2021/07/24 06:53:36;;;;;;;21.95;4.60;;;32.50;70.60;;;;;;5106279;27;20076;-62
2021/07/24 06:56:04;;;;;;;24.02;5.80;;;;;;;;;;5101904;27;20552;-61
2021/07/24 06:58:31;;;;;;;20.80;4.75;;;32.40;99.90;;;;;;5107478;27;20028;-63
2021/07/24 07:00:58;;;;;;;27.27;5.22;;;;;;;;;;5102794;27;20088;-63
2021/07/24 07:03:25;;;;;;;24.20;5.88;;;;;;;;;;5106872;27;20028;-63
2021/07/24 07:05:54;;;;;;;21.00;5.13;;;32.60;99.90;;;;;;5105256;27;20028;-61
2021/07/24 07:08:21;;;;;;;24.08;5.20;;;32.10;73.30;;;;;;5108094;28;20015;-61
2021/07/24 07:10:48;;;;;;;21.52;5.53;;;;;;;;;;5104438;27;20069;-62
2021/07/24 07:13:15;;;;;;;20.08;5.20;;;;;;;;;;5101568;27;20120;-63
2021/07/24 07:15:41;;;;;;;27.52;5.38;;;32.20;80.30;;;;;;5106981;27;20071;-62
2021/07/24 07:18:08;;;;;;;24.40;5.07;;;;;;;;;;5108076;27;20080;-62
2021/07/24 07:20:34;;;;;;;25.90;5.90;;;32.20;76.00;;;;;;5109815;27;20040;-63
2021/07/24 07:23:04;;;;;;;27.60;6.07;;;32.20;76.80;;;;;;5110095;27;20105;-64
2021/07/24 07:25:30;;;;;;;26.67;6.10;;;32.20;78.20;;;;;;5112883;27;20084;-62
2021/07/24 07:27:57;;;;;;;28.20;6.70;;;32.10;79.00;;;;;;5104200;27;20073;-62
2021/07/24 07:30:23;;;;;;;27.83;6.03;;;32.00;99.90;;;;;;5106018;27;20397;-63
2021/07/24 07:32:50;;;;;;;26.98;5.13;;;32.00;81.20;;;;;;5107900;27;20019;-61
2021/07/24 07:35:16;;;;;;;21.13;5.38;;;32.00;81.40;;;;;;5108410;27;20130;-65
2021/07/24 07:37:50;;;;;;;23.83;5.30;;;32.00;82.30;;;;;;5099837;27;20525;-62
2021/07/24 07:40:18;;;;;;;24.02;5.72;;;;;;;;;;5104761;27;20049;-63
2021/07/24 07:42:44;;;;;;;22.00;6.15;;;32.20;99.90;;;;;;5105531;27;20081;-62
2021/07/24 07:45:11;;;;;;;25.33;4.75;;;32.00;85.00;;;;;;5108884;27;20108;-62
2021/07/24 07:47:38;;;;;;;25.92;5.70;;;32.00;85.60;;;;;;5105486;27;20094;-64
2021/07/24 07:50:09;;;;;;;20.83;5.70;;;32.00;86.10;;;;;;5102471;27;20137;-62
2021/07/24 07:52:35;;;;;;;26.95;5.68;;;31.90;86.60;;;;;;5106890;27;20460;-63
2021/07/24 07:55:03;;;;;;;22.85;5.20;;;31.90;87.90;;;;;;5103540;27;20403;-63
2021/07/24 07:57:29;;;;;;;30.10;6.20;;;31.80;89.00;;;;;;5104856;27;20020;-62
2021/07/24 07:59:56;;;;;;;29.00;6.43;;;31.80;89.50;;;;;;5109104;27;20087;-63
2021/07/24 08:02:23;;;;;;;25.40;6.03;;;31.80;90.30;;;;;;5103050;27;20036;-63
2021/07/24 08:04:50;;;;;;;29.30;6.10;;;31.80;90.00;;;;;;5108299;27;20133;-62
2021/07/24 08:07:17;;;;;;;26.92;5.65;;;31.70;90.10;;;;;;5105188;27;20171;-62
2021/07/24 08:09:44;;;;;;;24.05;5.57;;;31.70;90.60;;;;;;5101414;27;20103;-65
2021/07/24 08:12:10;;;;;;;24.95;5.68;;;31.70;90.70;;;;;;5107111;27;20076;-61
2021/07/24 08:14:37;;;;;;;29.13;7.55;;;31.60;90.40;;;;;;5105172;27;20076;-61
2021/07/24 08:17:04;;;;;;;27.73;6.97;;;31.60;91.00;;;;;;5099264;27;20122;-64
2021/07/24 08:19:32;;;;;;;26.88;6.68;;;31.60;91.40;;;;;;5103553;27;20183;-63
2021/07/24 08:21:58;;;;;;;26.08;7.70;;;31.60;91.10;;;;;;5106376;28;20075;-62
2021/07/24 08:24:25;;;;;;;26.10;6.72;;;;;;;;;;5102607;28;20072;-62
2021/07/24 08:26:54;;;;;;;23.73;5.18;;;;;;;;;;5104640;27;20206;-63
2021/07/24 08:29:21;;;;;;;22.40;5.90;;;;;;;;;;5103012;28;20059;-63
2021/07/24 08:31:48;;;;;;;20.38;5.25;;;;;;;;;;5100021;27;20056;-62
2021/07/24 08:34:14;;;;;;;22.73;5.65;;;;;;;;;;5100059;27;20023;-63
2021/07/24 08:36:41;;;;;;;22.95;5.32;;;31.70;88.00;;;;;;5099881;28;20473;-63
2021/07/24 08:39:07;;;;;;;18.00;5.40;;;;;;;;;;5095770;28;20039;-62
2021/07/24 08:41:40;;;;;;;23.75;5.43;;;31.60;88.60;;;;;;5104309;27;20079;-62
2021/07/24 08:44:07;;;;;;;20.05;5.50;;;31.50;89.30;;;;;;5104363;27;20035;-64
2021/07/24 08:46:34;;;;;;;21.27;4.70;;;31.50;89.30;;;;;;5106167;27;20546;-62
2021/07/24 08:49:01;;;;;;;21.67;4.50;;;31.50;89.90;;;;;;5103321;28;20144;-63
2021/07/24 08:51:30;;;;;;;20.80;4.80;;;31.50;90.00;;;;;;5106534;27;20090;-62
2021/07/24 08:53:57;;;;;;;26.00;6.07;;;31.50;90.00;;;;;;5101919;28;20073;-62
2021/07/24 08:56:29;;;;;;;23.10;4.97;;;31.50;90.10;;;;;;5104801;28;20120;-61
2021/07/24 08:59:00;;;;;;;22.85;5.43;;;31.40;90.20;;;;;;5106018;27;20155;-63
2021/07/24 09:01:30;;;;;;;23.58;4.53;;;31.40;90.50;;;;;;5104656;28;20106;-62
2021/07/24 09:04:03;;;;;;;19.08;5.13;;;31.40;90.80;;;;;;5104659;28;20416;-61
2021/07/24 09:06:30;;;;;;;17.77;5.05;;;31.30;90.70;;;;;;5105708;28;20083;-61
2021/07/24 09:08:57;;;;;;;16.33;4.68;;;31.30;91.10;;;;;;5103998;28;20076;-62
2021/07/24 09:11:24;;;;;;;19.30;5.18;;;31.30;91.80;;;;;;5104602;28;20083;-62
2021/07/24 09:13:50;;;;;;;17.63;5.13;;;31.20;91.70;;;;;;5105455;28;20076;-63
2021/07/24 09:16:17;;;;;;;26.50;5.20;;;31.20;91.80;;;;;;5103033;28;20436;-64
2021/07/24 09:18:44;;;;;;;23.73;5.15;;;31.20;91.80;;;;;;5103005;27;20076;-63
2021/07/24 09:21:14;;;;;;;20.65;5.45;;;31.20;91.80;;;;;;5107558;28;20084;-62
2021/07/24 09:23:40;;;;;;;20.60;4.60;;;31.20;92.00;;;;;;5103089;28;20164;-63
2021/07/24 09:26:07;;;;;;;23.58;5.28;;;31.20;92.10;;;;;;5104487;28;20152;-63
2021/07/24 09:28:34;;;;;;;21.17;4.85;;;31.20;92.40;;;;;;5104457;28;20080;-63
2021/07/24 09:31:20;;;;;;;22.85;5.20;;;31.20;92.80;;;;;;5107567;28;20084;-63
2021/07/24 09:33:50;;;;;;;24.33;5.82;;;31.10;93.00;;;;;;5105484;28;20579;-63
2021/07/24 09:36:33;;;;;;;22.45;4.80;;;31.10;93.20;;;;;;5104710;28;20081;-64
2021/07/24 09:39:08;;;;;;;21.38;5.50;;;31.20;93.30;;;;;;5102786;28;20276;-63
2021/07/24 09:41:36;;;;;;;25.25;5.50;;;31.10;93.60;;;;;;5094376;28;20080;-63
2021/07/24 09:44:03;;;;;;;22.00;4.78;;;31.10;94.10;;;;;;5101833;28;20525;-63
2021/07/24 09:46:29;;;;;;;18.60;4.80;;;31.00;94.50;;;;;;5109285;28;20125;-63
2021/07/24 09:48:56;;;;;;;18.48;5.20;;;31.00;94.80;;;;;;5100846;28;20073;-63
2021/07/24 09:51:36;;;;;;;26.67;5.50;;;30.90;95.30;;;;;;5104256;28;20083;-63
2021/07/24 09:54:07;;;;;;;21.52;6.38;;;30.90;95.60;;;;;;5105792;28;20068;-62
2021/07/24 09:56:45;;;;;;;27.95;6.18;;;30.90;95.70;;;;;;5101551;28;20491;-63
2021/07/24 09:59:30;;;;;;;24.88;7.03;;;30.90;99.90;;;;;;5104842;28;20099;-63
2021/07/24 10:01:58;;;;;;;25.30;7.80;;;30.90;95.90;;;;;;5104362;27;20594;-62
2021/07/24 10:04:25;;;;;;;28.20;7.88;;;30.90;96.40;;;;;;5104922;27;20080;-62
2021/07/24 10:06:56;;;;;;;30.73;8.77;;;30.70;96.10;;;;;;5104735;27;20142;-63
2021/07/24 10:09:27;;;;;;;33.45;9.07;;;30.90;96.50;;;;;;5108839;28;20524;-62
2021/07/24 10:11:58;;;;;;;31.33;7.95;;;30.90;95.90;;;;;;5105866;27;20117;-63
2021/07/24 10:14:25;;;;;;;27.33;7.75;;;;;;;;;;5105897;28;20521;-63
2021/07/24 10:16:54;;;;;;;26.00;7.35;;;31.00;96.00;;;;;;5106716;27;20028;-63
2021/07/24 10:19:22;;;;;;;26.95;7.90;;;30.90;96.10;;;;;;5106089;27;20194;-64
2021/07/24 10:21:50;;;;;;;31.33;8.18;;;30.90;96.50;;;;;;5107682;27;20521;-62
2021/07/24 10:24:17;;;;;;;28.08;8.45;;;30.80;96.90;;;;;;5106461;27;20083;-62
2021/07/24 10:27:11;;;;;;;34.42;7.75;;;30.80;97.20;;;;;;5106961;27;20112;-63
2021/07/24 10:29:50;;;;;;;30.95;8.30;;;30.80;97.40;;;;;;5111554;28;20157;-63
2021/07/24 10:32:17;;;;;;;26.38;6.72;;;30.80;97.70;;;;;;5107694;27;20080;-63
2021/07/24 10:34:52;;;;;;;22.38;6.68;;;30.80;97.70;;;;;;5112639;27;20080;-63
2021/07/24 10:37:44;;;;;;;26.92;6.40;;;30.80;97.80;;;;;;5102627;27;20088;-63
2021/07/24 10:40:24;;;;;;;24.35;6.30;;;30.80;98.20;;;;;;5108432;27;20103;-62
2021/07/24 10:42:54;;;;;;;22.25;5.88;;;30.70;98.50;;;;;;5107943;27;20099;-63
2021/07/24 10:45:30;;;;;;;27.98;5.65;;;30.70;99.20;;;;;;5109404;28;20502;-62
2021/07/24 10:48:19;;;;;;;26.38;6.22;;;30.70;98.90;;;;;;5103161;27;20159;-61
2021/07/24 10:51:00;;;;;;;20.27;5.65;;;30.70;98.50;;;;;;5106435;27;20586;-62
2021/07/24 10:53:28;;;;;;;21.27;6.30;;;30.70;98.90;;;;;;5101950;28;20082;-62
2021/07/24 10:55:56;;;;;;;25.95;6.28;;;30.70;99.10;;;;;;5102915;27;20072;-63
2021/07/24 10:58:25;;;;;;;19.35;5.47;;;30.70;99.20;;;;;;5108020;27;20104;-63
2021/07/24 11:00:54;;;;;;;24.20;6.00;;;30.70;99.20;;;;;;5104941;27;20188;-62
2021/07/24 11:03:36;;;;;;;23.10;5.93;;;30.70;99.40;;;;;;5106685;27;20496;-64
2021/07/24 11:06:25;;;;;;;20.50;5.82;;;30.80;99.30;;;;;;5105595;27;20230;-62
2021/07/24 11:09:02;;;;;;;23.85;6.60;;;30.70;99.20;;;;;;5102212;27;20076;-62
2021/07/24 11:11:40;;;;;;;18.67;6.65;;;30.70;99.30;;;;;;5106329;27;20133;-63
2021/07/24 11:14:07;;;;;;;25.83;8.30;;;30.70;99.40;;;;;;5107628;27;20180;-63
2021/07/24 11:17:07;;;;;;;24.80;8.63;;;30.60;99.50;;;;;;5103433;27;20122;-63
2021/07/24 11:19:36;;;;;;;30.48;9.38;;;30.60;99.90;;;;;;5109129;27;20183;-62
2021/07/24 11:22:14;;;;;;;24.83;8.70;;;30.60;99.90;;;;;;5108879;27;21494;-62
2021/07/24 11:24:43;;;;;;;28.48;8.98;;;30.60;99.90;;;;;;5104966;27;20080;-63
2021/07/24 11:27:10;;;;;;;26.15;8.13;;;30.60;99.90;;;;;;5102787;27;20114;-63
2021/07/24 11:29:38;;;;;;;22.05;7.32;;;30.60;99.90;;;;;;5109571;27;20112;-62
2021/07/24 11:32:05;;;;;;;25.52;6.63;;;30.60;99.90;;;;;;5102995;28;20076;-63
2021/07/24 11:34:33;;;;;;;27.98;7.22;;;30.50;99.90;;;;;;5109955;28;20080;-62
2021/07/24 11:37:00;;;;;;;21.30;5.82;;;30.50;99.90;;;;;;5108632;27;20068;-63
2021/07/24 11:39:32;;;;;;;21.98;6.53;;;30.50;99.90;;;;;;5107637;27;20187;-63
2021/07/24 11:41:59;;;;;;;24.50;6.32;;;30.50;99.90;;;;;;5099458;27;20080;-63
2021/07/24 11:44:28;;;;;;;22.92;6.93;;;30.50;99.90;;;;;;5110730;27;20068;-62
2021/07/24 11:46:57;;;;;;;27.65;7.32;;;30.50;99.90;;;;;;5105868;27;20432;-62
2021/07/24 11:49:24;;;;;;;24.27;7.45;;;30.50;99.90;;;;;;5099765;28;20076;-61
2021/07/24 11:51:50;;;;;;;24.42;7.00;;;30.50;99.90;;;;;;5109976;27;20130;-64
2021/07/24 11:54:49;;;;;;;22.80;6.40;;;30.50;99.90;;;;;;5103385;27;20155;-63
2021/07/24 11:57:27;;;;;;;22.13;6.25;;;30.40;99.90;;;;;;5105051;27;20077;-62
2021/07/24 11:59:54;;;;;;;21.98;6.00;;;30.30;99.90;;;;;;5102731;28;20091;-62
2021/07/24 12:02:21;;;;;;;17.88;5.45;;;30.30;99.90;;;;;;5108148;27;20532;-61
2021/07/24 12:04:51;;;;;;;24.63;5.85;;;30.30;99.90;;;;;;5102966;27;20072;-63
2021/07/24 12:07:19;;;;;;;22.27;5.90;;;30.40;99.90;;;;;;5107363;28;20083;-62
2021/07/24 12:09:46;;;;;;;24.88;6.18;;;30.30;99.90;;;;;;5108080;27;20532;-62
2021/07/24 12:12:12;;;;;;;19.42;5.60;;;30.30;99.90;;;;;;5106156;28;20146;-62
2021/07/24 12:14:39;;;;;;;23.58;5.40;;;30.30;99.90;;;;;;5099226;27;20533;-63
2021/07/24 12:17:10;;;;;;;21.58;5.95;;;30.30;99.90;;;;;;5106521;27;20072;-63
2021/07/24 12:19:44;;;;;;;16.73;5.45;;;30.30;99.90;;;;;;5104638;27;20186;-63
2021/07/24 12:22:19;;;;;;;17.10;5.78;;;30.20;99.90;;;;;;5104950;27;20106;-63
2021/07/24 12:24:47;;;;;;;29.48;5.95;;;30.20;99.90;;;;;;5102201;27;20564;-64
2021/07/24 12:27:18;;;;;;;21.35;6.30;;;30.20;99.90;;;;;;5107150;27;20553;-63
2021/07/24 12:29:48;;;;;;;18.83;4.82;;;30.20;99.90;;;;;;5105728;27;20173;-63
2021/07/24 12:32:14;;;;;;;20.90;6.03;;;30.20;99.90;;;;;;5102515;27;20072;-63
2021/07/24 12:34:42;;;;;;;22.60;5.85;;;30.10;99.90;;;;;;5106573;27;20162;-63
2021/07/24 12:37:08;;;;;;;27.30;7.50;;;30.10;99.90;;;;;;5103456;28;20096;-63
2021/07/24 12:39:37;;;;;;;20.33;5.18;;;30.10;99.90;;;;;;5105766;28;20100;-63
2021/07/24 12:42:08;;;;;;;22.75;5.57;;;30.10;99.90;;;;;;5106742;27;20123;-63
2021/07/24 12:44:57;;;;;;;25.30;6.50;;;30.10;99.90;;;;;;5104443;28;20065;-62
2021/07/24 12:47:25;;;;;;;23.70;6.32;;;30.10;99.90;;;;;;5105031;27;20513;-63
2021/07/24 12:49:53;;;;;;;19.60;5.45;;;30.00;99.90;;;;;;5103029;27;20087;-63
2021/07/24 12:52:33;;;;;;;19.75;6.25;;;30.00;99.90;;;;;;5105660;28;20552;-61
2021/07/24 12:55:11;;;;;;;26.92;6.38;;;30.00;99.90;;;;;;5104676;27;20103;-62